Time;durP1;ratioP1;P1;durP2;ratioP2;P2;SDS_P1;SDS_P2;PMS_P1;PMS_P2;Temp;Humidity;BMP_temperature;BMP_pressure;BME280_temperature;BME280_humidity;BME280_pressure;Samples;Min_cycle;Max_cycle;Signal;HPM_P1;HPM_P2
2023/04/06 00:01:02;;;;;;;13.00;9.27;;;;;;;-146.26;100.00;59860.63;4989647;28;20056;-74
2023/04/06 00:03:27;;;;;;;13.98;9.80;;;;;;;-146.26;100.00;59860.63;4989038;28;20534;-74
2023/04/06 00:05:55;;;;;;;10.98;7.25;;;;;;;-146.26;100.00;59860.63;4997970;28;20056;-74
2023/04/06 00:08:21;;;;;;;13.07;10.00;;;;;;;-146.26;100.00;59860.63;4988074;28;20137;-74
2023/04/06 00:10:47;;;;;;;13.20;8.57;;;;;;;-146.26;100.00;59860.63;4988217;28;20515;-74
2023/04/06 00:13:12;;;;;;;14.63;8.90;;;;;;;-146.26;100.00;59860.63;4988480;28;20031;-74
2023/04/06 00:15:38;;;;;;;11.77;9.10;;;;;;;-146.26;100.00;59860.63;4989639;28;20557;-74
2023/04/06 00:18:04;;;;;;;20.05;11.65;;;;;;;-146.26;100.00;59860.63;4987384;28;20042;-73
2023/04/06 00:20:30;;;;;;;15.30;11.07;;;;;;;-146.26;100.00;59860.63;4989202;28;20157;-74
2023/04/06 00:22:55;;;;;;;14.70;9.63;;;;;;;-146.26;100.00;59860.63;4989066;28;20414;-75
2023/04/06 00:25:21;;;;;;;13.15;8.90;;;;;;;-146.26;100.00;59860.63;4988052;28;20069;-75
2023/04/06 00:27:46;;;;;;;12.43;8.85;;;;;;;-146.26;100.00;59860.63;4989242;28;20101;-75
2023/04/06 00:30:12;;;;;;;13.38;10.50;;;;;;;-146.26;100.00;59860.63;4988660;28;20046;-76
2023/04/06 00:32:37;;;;;;;18.02;11.43;;;;;;;-146.26;100.00;59860.63;4994064;28;20053;-75
2023/04/06 00:35:04;;;;;;;14.98;11.45;;;;;;;-146.26;100.00;59860.63;4988782;28;20495;-74
2023/04/06 00:37:30;;;;;;;14.02;8.90;;;;;;;-146.26;100.00;59860.63;4987689;28;20053;-73
2023/04/06 00:39:56;;;;;;;15.13;9.35;;;;;;;-146.26;100.00;59860.63;4989002;28;20030;-75
2023/04/06 00:42:26;;;;;;;15.00;10.93;;;;;;;-146.26;100.00;59860.63;4987969;28;20076;-74
2023/04/06 00:44:57;;;;;;;14.27;10.05;;;;;;;-146.26;100.00;59860.63;4986874;28;20046;-73
2023/04/06 00:47:25;;;;;;;15.50;10.38;;;;;;;-146.26;100.00;59860.63;4988801;28;20054;-72
2023/04/06 00:49:51;;;;;;;21.05;10.20;;;;;;;-146.26;100.00;59860.63;4987968;28;20073;-74
2023/04/06 00:52:17;;;;;;;19.75;11.80;;;;;;;-146.26;100.00;59860.63;4986818;28;20042;-74
2023/04/06 00:54:43;;;;;;;15.63;9.45;;;;;;;-146.26;100.00;59860.63;4989110;28;20466;-74
2023/04/06 00:57:09;;;;;;;14.63;11.07;;;;;;;-146.26;100.00;59860.63;4988136;28;20050;-77
2023/04/06 00:59:35;;;;;;;15.10;11.23;;;;;;;-146.26;100.00;59860.63;4988274;28;20050;-73
2023/04/06 01:02:01;;;;;;;16.10;10.93;;;;;;;-146.26;100.00;59860.63;4988360;28;20038;-74
2023/04/06 01:04:27;;;;;;;14.68;11.05;;;;;;;-146.26;100.00;59860.63;4988296;28;20402;-75
2023/04/06 01:06:52;;;;;;;16.70;10.30;;;;;;;-146.26;100.00;59860.63;4987484;28;20062;-75
2023/04/06 01:09:19;;;;;;;12.30;9.23;;;;;;;-146.26;100.00;59860.63;4987501;28;20073;-75
2023/04/06 01:11:45;;;;;;;17.35;12.75;;;;;;;-146.26;100.00;59860.63;4987978;28;20039;-74
2023/04/06 01:14:10;;;;;;;16.85;11.32;;;;;;;-146.26;100.00;59860.63;4988223;28;20042;-75
2023/04/06 01:16:37;;;;;;;17.58;11.40;;;;;;;-146.26;100.00;59860.63;4986817;28;20472;-74
2023/04/06 01:19:12;;;;;;;17.13;11.18;;;;;;;-146.26;100.00;59860.63;4995916;28;20089;-74
2023/04/06 01:21:39;;;;;;;16.80;11.55;;;;;;;-146.26;100.00;59860.63;4986775;28;20046;-75
2023/04/06 01:24:05;;;;;;;14.90;11.57;;;;;;;-146.26;100.00;59860.63;4988213;28;20516;-74
2023/04/06 01:26:33;;;;;;;18.23;12.43;;;;;;;-146.26;100.00;59860.63;4987689;28;20054;-73
2023/04/06 01:28:59;;;;;;;26.27;13.77;;;;;;;-146.26;100.00;59860.63;4987853;28;20417;-74
2023/04/06 01:31:25;;;;;;;16.02;11.10;;;;;;;-146.26;100.00;59860.63;4988123;28;20034;-73
2023/04/06 01:33:50;;;;;;;16.20;9.98;;;;;;;-146.26;100.00;59860.63;4988206;28;20029;-74
2023/04/06 01:36:16;;;;;;;21.48;15.38;;;;;;;-146.26;100.00;59860.63;4987885;28;20082;-74
2023/04/06 01:38:42;;;;;;;17.00;12.30;;;;;;;-146.26;100.00;59860.63;4987453;28;20064;-74
2023/04/06 01:41:08;;;;;;;15.93;11.52;;;;;;;-146.26;100.00;59860.63;4987801;28;20082;-74
2023/04/06 01:43:34;;;;;;;16.15;12.35;;;;;;;-146.26;100.00;59860.63;4987784;28;20057;-74
2023/04/06 01:46:00;;;;;;;16.08;11.57;;;;;;;-146.26;100.00;59860.63;4988393;28;20043;-73
2023/04/06 01:48:29;;;;;;;16.25;11.45;;;;;;;-146.26;100.00;59860.63;4987685;28;20069;-74
2023/04/06 01:50:55;;;;;;;18.83;12.55;;;;;;;-146.26;100.00;59860.63;4987800;28;20031;-74
2023/04/06 01:53:20;;;;;;;15.93;12.07;;;;;;;-146.26;100.00;59860.63;4987661;28;20116;-74
2023/04/06 01:55:46;;;;;;;16.05;11.45;;;;;;;-146.26;100.00;59860.63;4987878;28;20499;-74
2023/04/06 01:58:12;;;;;;;18.63;11.25;;;;;;;-146.26;100.00;59860.63;4987593;28;20119;-74
2023/04/06 02:00:38;;;;;;;17.23;12.00;;;;;;;-146.26;100.00;59860.63;4999394;28;20038;-74
2023/04/06 02:03:04;;;;;;;21.08;11.88;;;;;;;-146.26;100.00;59860.63;4991415;28;20052;-72
2023/04/06 02:05:31;;;;;;;21.08;13.02;;;;;;;-146.26;100.00;59860.63;4991117;28;20402;-73
2023/04/06 02:07:57;;;;;;;17.42;11.82;;;;;;;-146.26;100.00;59860.63;4990506;28;20105;-75
2023/04/06 02:10:23;;;;;;;19.48;12.45;;;;;;;-146.26;100.00;59860.63;4991267;28;20425;-75
2023/04/06 02:12:49;;;;;;;18.30;11.52;;;;;;;-146.26;100.00;59860.63;4992027;28;20398;-74
2023/04/06 02:15:15;;;;;;;19.55;11.70;;;;;;;-146.26;100.00;59860.63;4991192;28;20050;-74
2023/04/06 02:17:41;;;;;;;19.77;13.43;;;;;;;-146.26;100.00;59860.63;4989368;28;20060;-76
2023/04/06 02:20:07;;;;;;;17.23;12.35;;;;;;;-146.26;100.00;59860.63;4991158;28;20038;-75
2023/04/06 02:22:34;;;;;;;19.45;11.25;;;;;;;-146.26;100.00;59860.63;4990913;28;20146;-76
2023/04/06 02:25:01;;;;;;;21.55;12.88;;;;;;;-146.26;100.00;59860.63;4991392;28;20070;-75
2023/04/06 02:27:27;;;;;;;17.70;12.38;;;;;;;-146.26;100.00;59860.63;4990706;28;20085;-74
2023/04/06 02:29:52;;;;;;;18.48;12.80;;;;;;;-146.26;100.00;59860.63;4990821;28;20486;-75
2023/04/06 02:32:18;;;;;;;15.75;12.52;;;;;;;-146.26;100.00;59860.63;4990612;28;20046;-75
2023/04/06 02:34:43;;;;;;;21.77;13.00;;;;;;;-146.26;100.00;59860.63;4990696;28;20073;-73
2023/04/06 02:37:08;;;;;;;20.05;12.95;;;;;;;-146.26;100.00;59860.63;4988779;28;20109;-73
2023/04/06 02:39:34;;;;;;;17.67;13.70;;;;;;;-146.26;100.00;59860.63;4991312;28;20023;-75
2023/04/06 02:41:59;;;;;;;21.42;13.70;;;;;;;-146.26;100.00;59860.63;4990695;28;20105;-72
2023/04/06 02:44:25;;;;;;;17.23;11.85;;;;;;;-146.26;100.00;59860.63;4978661;28;20051;-74
2023/04/06 02:46:50;;;;;;;15.32;11.00;;;;;;;-146.26;100.00;59860.63;4986528;28;20108;-73
2023/04/06 02:49:16;;;;;;;19.63;13.60;;;;;;;-146.26;100.00;59860.63;4990460;28;20037;-75
2023/04/06 02:51:41;;;;;;;20.25;13.63;;;;;;;-146.26;100.00;59860.63;4991045;28;20062;-74
2023/04/06 02:54:07;;;;;;;18.55;12.88;;;;;;;-146.26;100.00;59860.63;4990562;28;20038;-74
2023/04/06 02:56:32;;;;;;;21.70;13.88;;;;;;;-146.26;100.00;59860.63;4990365;28;20432;-74
2023/04/06 02:58:58;;;;;;;21.55;13.98;;;;;;;-146.26;100.00;59860.63;4990098;28;20046;-75
2023/04/06 03:01:24;;;;;;;34.20;15.05;;;;;;;-146.26;100.00;59860.63;4989996;28;20463;-74
2023/04/06 03:03:49;;;;;;;19.13;14.48;;;;;;;-146.26;100.00;59860.63;4990813;28;20035;-74
2023/04/06 03:06:15;;;;;;;23.20;14.73;;;;;;;-146.26;100.00;59860.63;4989808;28;20115;-75
2023/04/06 03:08:40;;;;;;;20.42;12.63;;;;;;;-146.26;100.00;59860.63;4989868;28;20056;-74
2023/04/06 03:11:06;;;;;;;19.52;13.30;;;;;;;-146.26;100.00;59860.63;4989164;28;20052;-74
2023/04/06 03:13:31;;;;;;;21.73;14.00;;;;;;;-146.26;100.00;59860.63;4989033;28;20043;-75
2023/04/06 03:15:57;;;;;;;23.08;14.07;;;;;;;-146.26;100.00;59860.63;4990278;28;20518;-75
2023/04/06 03:18:24;;;;;;;20.20;14.55;;;;;;;-146.26;100.00;59860.63;4988057;28;20054;-75
2023/04/06 03:20:50;;;;;;;19.27;14.27;;;;;;;-146.26;100.00;59860.63;4989986;28;20085;-73
2023/04/06 03:23:16;;;;;;;20.75;12.77;;;;;;;-146.26;100.00;59860.63;4989836;28;20070;-74
2023/04/06 03:25:41;;;;;;;23.00;14.32;;;;;;;-146.26;100.00;59860.63;4989742;28;20046;-74
2023/04/06 03:28:07;;;;;;;19.65;14.88;;;;;;;-146.26;100.00;59860.63;4991584;28;20092;-76
2023/04/06 03:30:32;;;;;;;17.27;11.82;;;;;;;-146.26;100.00;59860.63;4998070;28;20049;-75
2023/04/06 03:32:58;;;;;;;22.40;14.23;;;;;;;-146.26;100.00;59860.63;4997803;28;20038;-78
2023/04/06 03:35:24;;;;;;;23.23;15.30;;;;;;;-146.26;100.00;59860.63;4989484;28;20122;-75
2023/04/06 03:37:49;;;;;;;20.98;15.30;;;;;;;-146.26;100.00;59860.63;4987784;28;20446;-73
2023/04/06 03:40:15;;;;;;;19.40;15.48;;;;;;;-146.26;100.00;59860.63;4980749;28;20034;-77
2023/04/06 03:42:41;;;;;;;24.60;15.48;;;;;;;-146.26;100.00;59860.63;4982982;28;20816;-75
2023/04/06 03:45:07;;;;;;;20.90;14.88;;;;;;;-146.26;100.00;59860.63;4989636;28;20117;-76
2023/04/06 03:47:33;;;;;;;27.27;15.85;;;;;;;-146.26;100.00;59860.63;4989286;28;20193;-76
2023/04/06 03:49:58;;;;;;;19.02;12.55;;;;;;;-146.26;100.00;59860.63;4989440;28;20159;-73
2023/04/06 03:52:24;;;;;;;17.58;13.18;;;;;;;-146.26;100.00;59860.63;4989447;28;20034;-73
2023/04/06 03:54:49;;;;;;;20.02;13.60;;;;;;;-146.26;100.00;59860.63;4990032;28;20034;-73
2023/04/06 03:57:15;;;;;;;22.67;14.43;;;;;;;-146.26;100.00;59860.63;4988531;28;20113;-74
2023/04/06 03:59:40;;;;;;;22.05;14.85;;;;;;;-146.26;100.00;59860.63;4989229;28;20096;-74
2023/04/06 04:02:06;;;;;;;21.92;16.42;;;;;;;-146.26;100.00;59860.63;4989191;28;20058;-74
2023/04/06 04:04:31;;;;;;;22.67;14.68;;;;;;;-146.26;100.00;59860.63;4988467;28;20502;-76
2023/04/06 04:06:57;;;;;;;27.17;16.55;;;;;;;-146.26;100.00;59860.63;4989490;28;20474;-74
2023/04/06 04:09:22;;;;;;;27.55;15.80;;;;;;;-146.26;100.00;59860.63;4987718;28;20077;-73
2023/04/06 04:11:48;;;;;;;22.05;16.17;;;;;;;-146.26;100.00;59860.63;4988972;28;20388;-74
2023/04/06 04:14:13;;;;;;;22.83;15.20;;;;;;;-146.26;100.00;59860.63;4988461;28;20046;-75
2023/04/06 04:16:39;;;;;;;21.20;12.52;;;;;;;-146.26;100.00;59860.63;4988704;28;20505;-75
2023/04/06 04:19:05;;;;;;;20.38;14.20;;;;;;;-146.26;100.00;59860.63;4987589;28;20036;-74
2023/04/06 04:21:31;;;;;;;21.35;15.98;;;;;;;-146.26;100.00;59860.63;4988422;28;20053;-75
2023/04/06 04:23:57;;;;;;;22.05;15.55;;;;;;;-146.26;100.00;59860.63;4988731;28;20058;-75
2023/04/06 04:26:22;;;;;;;21.08;14.48;;;;;;;-146.26;100.00;59860.63;4987954;28;20121;-74
2023/04/06 04:28:48;;;;;;;23.95;17.00;;;;;;;-146.26;100.00;59860.63;4988238;28;20113;-76
2023/04/06 04:31:13;;;;;;;26.33;16.00;;;;;;;-146.26;100.00;59860.63;4999412;28;20038;-78
2023/04/06 04:33:39;;;;;;;29.52;17.08;;;;;;;-146.26;100.00;59860.63;4989987;28;20077;-76
2023/04/06 04:36:05;;;;;;;33.55;17.27;;;;;;;-146.26;100.00;59860.63;4984533;28;20129;-75
2023/04/06 04:38:30;;;;;;;20.58;15.93;;;;;;;-146.26;100.00;59860.63;4979307;28;20050;-73
2023/04/06 04:40:56;;;;;;;22.30;14.65;;;;;;;-146.26;100.00;59860.63;4987770;28;20046;-74
2023/04/06 04:43:21;;;;;;;20.33;14.15;;;;;;;-146.26;100.00;59860.63;4987825;28;20220;-76
2023/04/06 04:45:47;;;;;;;30.52;16.17;;;;;;;-146.26;100.00;59860.63;4983960;28;20031;-74
2023/04/06 04:48:12;;;;;;;23.88;15.23;;;;;;;-146.26;100.00;59860.63;4985388;28;20549;-76
2023/04/06 04:50:38;;;;;;;21.10;13.95;;;;;;;-146.26;100.00;59860.63;4984546;28;20042;-76
2023/04/06 04:53:05;;;;;;;25.25;18.80;;;;;;;-146.26;100.00;59860.63;4985049;28;20061;-74
2023/04/06 04:55:31;;;;;;;22.42;14.25;;;;;;;-146.26;100.00;59860.63;4985837;28;20058;-74
2023/04/06 04:57:57;;;;;;;19.30;14.00;;;;;;;-146.26;100.00;59860.63;4985898;28;20038;-75
2023/04/06 05:00:23;;;;;;;23.17;16.05;;;;;;;-146.26;100.00;59860.63;4980923;28;20803;-71
2023/04/06 05:02:48;;;;;;;26.15;16.30;;;;;;;-146.26;100.00;59860.63;4984194;28;20046;-71
2023/04/06 05:05:14;;;;;;;26.33;15.73;;;;;;;-146.26;100.00;59860.63;4984425;28;20493;-74
2023/04/06 05:07:39;;;;;;;25.25;15.93;;;;;;;-146.26;100.00;59860.63;4984956;28;20422;-72
2023/04/06 05:10:05;;;;;;;22.83;15.13;;;;;;;-146.26;100.00;59860.63;4984887;28;20030;-74
2023/04/06 05:12:31;;;;;;;24.52;15.00;;;;;;;-146.26;100.00;59860.63;4984869;28;20273;-74
2023/04/06 05:14:57;;;;;;;31.13;19.42;;;;;;;-146.26;100.00;59860.63;4986071;28;20058;-73
2023/04/06 05:17:22;;;;;;;24.45;15.55;;;;;;;-146.26;100.00;59860.63;4986110;28;20507;-73
2023/04/06 05:19:48;;;;;;;29.48;17.02;;;;;;;-146.26;100.00;59860.63;4984782;28;20454;-74
2023/04/06 05:22:17;;;;;;;26.73;19.13;;;;;;;-146.26;100.00;59860.63;4985794;28;20027;-72
2023/04/06 05:24:43;;;;;;;28.20;15.48;;;;;;;-146.26;100.00;59860.63;4986446;28;20030;-72
2023/04/06 05:27:09;;;;;;;22.73;15.43;;;;;;;-146.26;100.00;59860.63;5016951;28;20129;-72
2023/04/06 05:29:35;;;;;;;29.05;16.27;;;;;;;-146.26;100.00;59860.63;4985311;28;20108;-72
2023/04/06 05:32:01;;;;;;;24.80;16.08;;;;;;;-146.26;100.00;59860.63;4985472;28;20769;-73
2023/04/06 05:34:26;;;;;;;29.27;17.85;;;;;;;-146.26;100.00;59860.63;4987389;28;20394;-73
2023/04/06 05:36:52;;;;;;;22.70;16.50;;;;;;;-146.26;100.00;59860.63;4990393;28;20031;-73
2023/04/06 05:39:17;;;;;;;25.63;18.23;;;;;;;-146.26;100.00;59860.63;4991101;28;20772;-73
2023/04/06 05:41:43;;;;;;;23.55;15.05;;;;;;;-146.26;100.00;59860.63;4991286;28;20030;-73
2023/04/06 05:44:08;;;;;;;23.05;17.80;;;;;;;-146.26;100.00;59860.63;4990189;28;20540;-72
2023/04/06 05:46:34;;;;;;;21.63;14.50;;;;;;;-146.26;100.00;59860.63;4990911;28;20138;-72
2023/04/06 05:49:00;;;;;;;25.20;17.50;;;;;;;-146.26;100.00;59860.63;4990490;28;20030;-72
2023/04/06 05:51:27;;;;;;;23.67;15.77;;;;;;;-146.26;100.00;59860.63;4990837;28;20406;-72
2023/04/06 05:53:52;;;;;;;22.40;15.38;;;;;;;-146.26;100.00;59860.63;4990524;28;20042;-72
2023/04/06 05:56:18;;;;;;;25.77;18.58;;;;;;;-146.26;100.00;59860.63;4990391;28;20042;-72
2023/04/06 05:58:44;;;;;;;28.83;14.65;;;;;;;-146.26;100.00;59860.63;4991080;28;20129;-72
2023/04/06 06:01:09;;;;;;;20.85;16.48;;;;;;;-146.26;100.00;59860.63;4990531;28;20543;-71
2023/04/06 06:03:35;;;;;;;30.13;15.48;;;;;;;-146.26;100.00;59860.63;4996309;28;20042;-72
2023/04/06 06:06:02;;;;;;;21.83;15.52;;;;;;;-146.26;100.00;59860.63;4990939;28;20677;-72
2023/04/06 06:08:27;;;;;;;35.47;17.33;;;;;;;-146.26;100.00;59860.63;4989765;28;20142;-73
2023/04/06 06:10:53;;;;;;;53.22;20.48;;;;;;;-146.26;100.00;59860.63;4990587;28;20129;-73
2023/04/06 06:13:19;;;;;;;19.73;15.13;;;;;;;-146.26;100.00;59860.63;4990676;28;20038;-73
2023/04/06 06:15:45;;;;;;;22.40;16.35;;;;;;;-146.26;100.00;59860.63;4991364;28;20110;-72
2023/04/06 06:18:10;;;;;;;21.98;14.98;;;;;;;-146.26;100.00;59860.63;4986743;28;20530;-72
2023/04/06 06:20:36;;;;;;;21.23;15.10;;;;;;;-146.26;100.00;59860.63;4990867;28;20046;-73
2023/04/06 06:23:01;;;;;;;35.53;17.58;;;;;;;-146.26;100.00;59860.63;4990663;28;20192;-73
2023/04/06 06:25:27;;;;;;;23.48;16.60;;;;;;;-146.26;100.00;59860.63;4990314;28;20572;-73
2023/04/06 06:27:52;;;;;;;30.42;16.85;;;;;;;-146.26;100.00;59860.63;4991300;28;20510;-73
2023/04/06 06:30:18;;;;;;;23.15;13.93;;;;;;;-146.26;100.00;59860.63;4988844;28;20042;-73
2023/04/06 06:32:43;;;;;;;24.73;15.85;;;;;;;-146.26;100.00;59860.63;4985272;28;20082;-74
2023/04/06 06:35:09;;;;;;;19.50;14.43;;;;;;;-146.26;100.00;59860.63;4987422;28;20085;-74
2023/04/06 06:37:34;;;;;;;20.65;14.45;;;;;;;-146.26;100.00;59860.63;4987708;28;20134;-73
2023/04/06 06:40:00;;;;;;;24.58;15.80;;;;;;;-146.26;100.00;59860.63;4988000;28;20038;-73
2023/04/06 06:42:26;;;;;;;19.33;14.77;;;;;;;-146.26;100.00;59860.63;4990306;28;20915;-75
2023/04/06 06:44:52;;;;;;;20.85;15.07;;;;;;;-146.26;100.00;59860.63;4990075;28;20038;-76
2023/04/06 06:47:17;;;;;;;20.50;14.90;;;;;;;-146.26;100.00;59860.63;4995924;28;20054;-73
2023/04/06 06:50:09;;;;;;;20.73;13.93;;;;;;;-146.26;100.00;59860.63;4983654;28;20048;-74
2023/04/06 06:52:53;;;;;;;34.08;15.82;;;;;;;-146.26;100.00;59860.63;4995355;28;20045;-75
2023/04/06 06:55:19;;;;;;;22.27;14.70;;;;;;;-146.26;100.00;59860.63;5007609;28;20050;-73
2023/04/06 06:57:46;;;;;;;19.67;12.35;;;;;;;-146.26;100.00;59860.63;4990624;28;20129;-74
2023/04/06 07:00:13;;;;;;;23.20;14.43;;;;;;;-146.26;100.00;59860.63;4989701;28;20137;-75
2023/04/06 07:02:38;;;;;;;24.70;14.98;;;;;;;-146.26;100.00;59860.63;4989780;28;20046;-73
2023/04/06 07:05:04;;;;;;;23.58;14.68;;;;;;;-146.26;100.00;59860.63;4989824;28;20057;-73
2023/04/06 07:07:32;;;;;;;26.95;17.10;;;;;;;-146.26;100.00;59860.63;4988973;28;20403;-73
2023/04/06 07:09:58;;;;;;;20.60;14.48;;;;;;;-146.26;100.00;59860.63;4989777;28;20034;-73
2023/04/06 07:12:23;;;;;;;24.52;13.52;;;;;;;-146.26;100.00;59860.63;4989289;28;20054;-72
2023/04/06 07:14:49;;;;;;;19.30;13.05;;;;;;;-146.26;100.00;59860.63;4971465;28;20038;-75
2023/04/06 07:17:14;;;;;;;25.48;15.40;;;;;;;-146.26;100.00;59860.63;4989903;28;20074;-73
2023/04/06 07:19:40;;;;;;;21.85;13.98;;;;;;;-146.26;100.00;59860.63;4985542;28;20062;-72
2023/04/06 07:22:06;;;;;;;20.92;14.90;;;;;;;-146.26;100.00;59860.63;4990155;28;20036;-75
2023/04/06 07:24:31;;;;;;;17.98;13.60;;;;;;;-146.26;100.00;59860.63;4988602;28;20057;-72
2023/04/06 07:27:00;;;;;;;25.08;16.63;;;;;;;-146.26;100.00;59860.63;4990322;28;20126;-73
2023/04/06 07:29:25;;;;;;;25.55;16.20;;;;;;;-146.26;100.00;59860.63;4991584;28;20050;-74
2023/04/06 07:31:51;;;;;;;18.67;14.07;;;;;;;-146.26;100.00;59860.63;4982857;28;20572;-75
2023/04/06 07:34:16;;;;;;;25.48;15.57;;;;;;;-146.26;100.00;59860.63;4999446;28;20038;-75
2023/04/06 07:36:42;;;;;;;19.25;13.63;;;;;;;-146.26;100.00;59860.63;4987741;28;20027;-74
2023/04/06 07:39:07;;;;;;;19.55;15.13;;;;;;;-146.26;100.00;59860.63;4986931;28;20154;-74
2023/04/06 07:41:33;;;;;;;17.90;13.02;;;;;;;-146.26;100.00;59860.63;4988269;28;20057;-74
2023/04/06 07:43:58;;;;;;;34.22;15.43;;;;;;;-146.26;100.00;59860.63;4987786;28;20046;-75
2023/04/06 07:46:24;;;;;;;15.00;12.55;;;;;;;-146.26;100.00;59860.63;4987975;28;20088;-76
2023/04/06 07:48:50;;;;;;;19.80;13.13;;;;;;;-146.26;100.00;59860.63;4988564;28;20033;-74
2023/04/06 07:51:17;;;;;;;21.25;13.13;;;;;;;-146.26;100.00;59860.63;4988813;28;20069;-75
2023/04/06 07:53:44;;;;;;;19.48;14.68;;;;;;;-146.26;100.00;59860.63;4988698;28;20034;-74
2023/04/06 07:56:09;;;;;;;23.55;12.98;;;;;;;-146.26;100.00;59860.63;4988404;28;20096;-74
2023/04/06 07:58:35;;;;;;;26.60;21.38;;;;;;;-146.26;100.00;59860.63;4988282;28;20446;-74
2023/04/06 08:01:01;;;;;;;19.60;12.45;;;;;;;-146.26;100.00;59860.63;4996046;28;20044;-73
2023/04/06 08:03:27;;;;;;;20.30;14.32;;;;;;;-146.26;100.00;59860.63;4991039;28;20387;-74
2023/04/06 08:05:53;;;;;;;14.70;12.48;;;;;;;-146.26;100.00;59860.63;4988274;28;20052;-72
2023/04/06 08:08:19;;;;;;;17.33;12.45;;;;;;;-146.26;100.00;59860.63;4986481;28;20035;-72
2023/04/06 08:10:45;;;;;;;24.15;18.13;;;;;;;-146.26;100.00;59860.63;4974408;28;20047;-76
2023/04/06 08:13:10;;;;;;;14.02;11.75;;;;;;;-146.26;100.00;59860.63;4985703;28;20061;-75
2023/04/06 08:15:36;;;;;;;26.83;13.63;;;;;;;-146.26;100.00;59860.63;4988538;28;20093;-74
2023/04/06 08:18:01;;;;;;;27.83;17.25;;;;;;;-146.26;100.00;59860.63;5001365;28;20095;-73
2023/04/06 08:20:27;;;;;;;17.75;12.05;;;;;;;-146.26;100.00;59860.63;4988942;28;20069;-72
2023/04/06 08:22:52;;;;;;;28.63;18.50;;;;;;;-146.26;100.00;59860.63;4987573;28;20491;-71
2023/04/06 08:25:18;;;;;;;18.77;16.83;;;;;;;-146.26;100.00;59860.63;4985271;28;20038;-73
2023/04/06 08:27:43;;;;;;;17.02;11.40;;;;;;;-146.26;100.00;59860.63;4988652;28;20460;-72
2023/04/06 08:30:09;;;;;;;21.48;18.20;;;;;;;-146.26;100.00;59860.63;4979406;28;20051;-71
2023/04/06 08:32:35;;;;;;;22.80;19.10;;;;;;;-146.26;100.00;59860.63;4979989;28;20038;-71
2023/04/06 08:35:02;;;;;;;20.83;17.38;;;;;;;-146.26;100.00;59860.63;4982476;28;20411;-72
2023/04/06 08:37:29;;;;;;;21.10;17.45;;;;;;;-146.26;100.00;59860.63;4984768;28;20483;-73
2023/04/06 08:39:55;;;;;;;26.05;17.73;;;;;;;-146.26;100.00;59860.63;4984232;28;20046;-74
2023/04/06 08:42:21;;;;;;;21.95;16.92;;;;;;;-146.26;100.00;59860.63;4987202;28;20532;-72
2023/04/06 08:44:50;;;;;;;26.63;16.75;;;;;;;-146.26;100.00;59860.63;4986299;28;20415;-72
2023/04/06 08:47:16;;;;;;;26.50;17.10;;;;;;;-146.26;100.00;59860.63;4984748;28;20141;-73
2023/04/06 08:49:43;;;;;;;30.92;20.42;;;;;;;-146.26;100.00;59860.63;4987400;28;20602;-70
2023/04/06 08:52:10;;;;;;;20.90;17.75;;;;;;;-146.26;100.00;59860.63;4988288;28;20060;-72
2023/04/06 08:54:36;;;;;;;19.45;17.38;;;;;;;-146.26;100.00;59860.63;4987520;28;20133;-71
2023/04/06 08:57:03;;;;;;;24.30;18.27;;;;;;;-146.26;100.00;59860.63;4987380;28;20137;-70
2023/04/06 08:59:29;;;;;;;25.48;16.50;;;;;;;-146.26;100.00;59860.63;4987144;28;20074;-74
2023/04/06 09:01:55;;;;;;;19.73;16.38;;;;;;;-146.26;100.00;59860.63;4987050;28;20085;-74
2023/04/06 09:04:21;;;;;;;23.02;18.13;;;;;;;-146.26;100.00;59860.63;4987224;28;20450;-74
2023/04/06 09:06:47;;;;;;;26.20;18.27;;;;;;;-146.26;100.00;59860.63;4986441;28;20053;-73
2023/04/06 09:09:13;;;;;;;22.70;17.23;;;;;;;-146.26;100.00;59860.63;4986627;28;20061;-74
2023/04/06 09:11:49;;;;;;;23.35;17.58;;;;;;;-146.26;100.00;59860.63;5014738;28;20129;-73
2023/04/06 09:14:17;;;;;;;21.23;18.92;;;;;;;-146.26;100.00;59860.63;4986884;28;20561;-76
2023/04/06 09:16:45;;;;;;;20.38;17.33;;;;;;;-146.26;100.00;59860.63;4987137;28;20078;-74
2023/04/06 09:19:12;;;;;;;21.85;17.50;;;;;;;-146.26;100.00;59860.63;4974979;28;20120;-73
2023/04/06 09:21:39;;;;;;;20.58;17.75;;;;;;;-146.26;100.00;59860.63;4988306;28;20030;-74
2023/04/06 09:24:07;;;;;;;41.13;17.88;;;;;;;-146.26;100.00;59860.63;4986837;28;20053;-74
2023/04/06 09:26:43;;;;;;;25.23;16.77;;;;;;;-146.26;100.00;59860.63;4987054;28;20042;-75
2023/04/06 09:29:10;;;;;;;20.95;18.10;;;;;;;-146.26;100.00;59860.63;4987142;28;20466;-74
2023/04/06 09:31:36;;;;;;;23.48;19.35;;;;;;;-146.26;100.00;59860.63;4987016;28;20055;-74
2023/04/06 09:34:02;;;;;;;19.60;16.23;;;;;;;-146.26;100.00;59860.63;5002467;28;20049;-74
2023/04/06 09:36:32;;;;;;;21.58;16.48;;;;;;;-146.26;100.00;59860.63;4986731;28;20082;-73
2023/04/06 09:38:59;;;;;;;20.95;16.17;;;;;;;-146.26;100.00;59860.63;5002014;28;20104;-77
2023/04/06 09:41:27;;;;;;;20.60;16.83;;;;;;;-146.26;100.00;59860.63;4987163;28;20467;-77
2023/04/06 09:44:05;;;;;;;19.17;16.88;;;;;;;-146.26;100.00;59860.63;4986685;28;20050;-77
2023/04/06 09:46:33;;;;;;;23.70;17.30;;;;;;;-146.26;100.00;59860.63;4986340;28;20050;-76
2023/04/06 09:49:01;;;;;;;28.35;15.60;;;;;;;-146.26;100.00;59860.63;4988005;28;20092;-78
2023/04/06 09:51:31;;;;;;;18.60;16.17;;;;;;;-146.26;100.00;59860.63;4999694;28;20061;-74
2023/04/06 09:54:02;;;;;;;23.70;18.15;;;;;;;-146.26;100.00;59860.63;4985442;28;20046;-76
2023/04/06 09:56:31;;;;;;;25.02;19.30;;;;;;;-146.26;100.00;59860.63;4986474;28;20042;-75
2023/04/06 09:59:03;;;;;;;30.02;17.75;;;;;;;-146.26;100.00;59860.63;4986057;28;20057;-75
2023/04/06 10:01:32;;;;;;;21.38;18.77;;;;;;;-146.26;100.00;59860.63;4986039;28;20541;-77
2023/04/06 10:04:25;;;;;;;22.50;17.40;;;;;;;-146.26;100.00;59860.63;4987303;28;20048;-75
2023/04/06 10:06:52;;;;;;;17.60;15.63;;;;;;;-146.26;100.00;59860.63;4989500;28;20550;-76
2023/04/06 10:09:22;;;;;;;23.30;18.15;;;;;;;-146.26;100.00;59860.63;4985487;28;20050;-75
2023/04/06 10:11:50;;;;;;;20.80;17.45;;;;;;;-146.26;100.00;59860.63;4982064;28;20058;-75
2023/04/06 10:14:16;;;;;;;21.50;18.65;;;;;;;-146.26;100.00;59860.63;4986458;28;20431;-73
2023/04/06 10:16:43;;;;;;;26.25;19.45;;;;;;;-146.26;100.00;59860.63;5019054;28;20046;-72
2023/04/06 10:19:24;;;;;;;22.10;18.30;;;;;;;-146.26;100.00;59860.63;4984513;28;20046;-74
2023/04/06 10:21:53;;;;;;;27.20;17.85;;;;;;;-146.26;100.00;59860.63;4988231;28;20052;-74
2023/04/06 10:24:19;;;;;;;24.65;17.75;;;;;;;-146.26;100.00;59860.63;4994395;28;20121;-74
2023/04/06 10:27:03;;;;;;;25.90;17.40;;;;;;;-146.26;100.00;59860.63;4993890;28;20069;-74
2023/04/06 10:29:28;;;;;;;;;;;;;;;-146.26;100.00;59860.63;4991728;28;20468;-74
2023/04/06 10:31:55;;;;;;;21.85;16.92;;;;;;;-146.26;100.00;59860.63;4989972;28;19972;-76
2023/04/06 10:34:21;;;;;;;18.40;16.50;;;;;;;-146.26;100.00;59860.63;4987763;28;20060;-74
2023/04/06 10:36:46;;;;;;;20.70;18.05;;;;;;;-146.26;100.00;59860.63;4988933;28;20482;-75
2023/04/06 10:39:12;;;;;;;19.02;16.85;;;;;;;-146.26;100.00;59860.63;5019514;28;20065;-73
2023/04/06 10:41:47;;;;;;;23.85;19.13;;;;;;;-146.26;100.00;59860.63;5021305;28;20039;-73
2023/04/06 10:44:23;;;;;;;25.60;18.80;;;;;;;-146.26;100.00;59860.63;4988287;28;20089;-73
2023/04/06 10:46:57;;;;;;;21.85;18.90;;;;;;;-146.26;100.00;59860.63;4987400;28;20061;-74
2023/04/06 10:49:24;;;;;;;;;;;;;;;-146.26;100.00;59860.63;4989852;28;20772;-73
2023/04/06 10:51:54;;;;;;;24.38;18.90;;;;;;;-146.26;100.00;59860.63;5021787;28;19926;-73